Time;durP1;ratioP1;P1;durP2;ratioP2;P2;SDS_P1;SDS_P2;PMS_P1;PMS_P2;Temp;Humidity;BMP_temperature;BMP_pressure;BME280_temperature;BME280_humidity;BME280_pressure;Samples;Min_cycle;Max_cycle;Signal;HPM_P1;HPM_P2
2023/03/29 00:00:59;;;;;;;2.65;1.20;;;;;;;14.47;35.72;101008.56;5091621;28;20396;-69
2023/03/29 00:03:29;;;;;;;3.25;1.17;;;;;;;14.44;35.78;101006.91;5092476;28;20473;-69
2023/03/29 00:06:01;;;;;;;2.70;1.15;;;;;;;14.43;35.75;101001.63;5095331;28;20485;-69
2023/03/29 00:08:32;;;;;;;2.00;1.02;;;;;;;14.40;35.89;101010.75;5095265;28;20119;-69
2023/03/29 00:11:01;;;;;;;2.58;1.20;;;;;;;14.38;35.71;101006.44;5095295;28;20485;-69
2023/03/29 00:13:30;;;;;;;2.53;1.10;;;;;;;14.35;35.85;101006.63;5095271;28;20044;-69
2023/03/29 00:15:58;;;;;;;2.05;1.20;;;;;;;14.34;35.83;101005.78;5095206;28;20055;-69
2023/03/29 00:18:26;;;;;;;1.88;1.08;;;;;;;14.31;35.82;101006.84;5095067;28;20066;-69
2023/03/29 00:20:55;;;;;;;3.88;1.30;;;;;;;14.30;35.83;101018.53;5095009;28;20046;-69
2023/03/29 00:23:23;;;;;;;2.47;1.10;;;;;;;14.28;35.79;101017.78;5095068;28;20046;-69
2023/03/29 00:25:54;;;;;;;1.55;0.90;;;;;;;14.25;35.60;101009.03;5094984;28;20074;-69
2023/03/29 00:28:22;;;;;;;2.65;1.10;;;;;;;14.22;35.83;101014.59;5094887;28;20044;-70
2023/03/29 00:30:51;;;;;;;2.63;1.10;;;;;;;14.22;35.63;101017.28;5094904;28;20044;-69
2023/03/29 00:33:20;;;;;;;1.60;1.00;;;;;;;14.19;35.87;101022.88;5094754;28;20052;-69
2023/03/29 00:35:52;;;;;;;1.92;1.20;;;;;;;14.18;35.77;101029.16;5094974;28;20424;-69
2023/03/29 00:38:20;;;;;;;3.33;1.20;;;;;;;14.16;35.57;101028.41;5094585;28;20052;-69
2023/03/29 00:40:48;;;;;;;2.63;1.05;;;;;;;14.12;35.68;101029.56;5094680;28;20055;-69
2023/03/29 00:43:18;;;;;;;2.63;1.30;;;;;;;14.10;35.68;101020.75;5094736;28;20051;-69
2023/03/29 00:45:46;;;;;;;3.08;1.35;;;;;;;14.09;35.78;101021.69;5094734;28;20044;-69
2023/03/29 00:48:18;;;;;;;2.30;1.27;;;;;;;14.08;35.84;101025.31;5094467;28;20070;-71
2023/03/29 00:50:50;;;;;;;2.35;1.10;;;;;;;14.06;35.75;101021.88;5094529;28;20416;-69
2023/03/29 00:53:25;;;;;;;2.13;1.10;;;;;;;14.03;35.65;101028.31;5094406;28;20044;-73
2023/03/29 00:55:58;;;;;;;1.98;1.15;;;;;;;14.01;35.67;101022.19;5094449;28;20048;-69
2023/03/29 00:58:35;;;;;;;2.83;1.10;;;;;;;13.97;35.82;101026.00;5094293;28;20097;-68
2023/03/29 01:01:09;;;;;;;2.78;1.20;;;;;;;13.98;35.90;101017.00;5094353;28;20079;-67
2023/03/29 01:03:45;;;;;;;2.20;1.02;;;;;;;13.94;35.78;101004.75;5094085;28;20511;-68
2023/03/29 01:06:18;;;;;;;1.70;0.98;;;;;;;13.93;35.85;101005.72;5094219;28;20040;-68
2023/03/29 01:08:51;;;;;;;2.63;1.20;;;;;;;13.88;35.82;101005.13;5094135;28;20044;-70
2023/03/29 01:11:23;;;;;;;2.30;1.17;;;;;;;13.89;35.72;101006.84;5095783;28;20039;-69
2023/03/29 01:13:58;;;;;;;2.60;1.38;;;;;;;13.86;35.91;101004.34;5094646;28;20066;-69
2023/03/29 01:16:29;;;;;;;2.13;1.15;;;;;;;13.86;35.81;101004.34;5093063;28;20512;-69
2023/03/29 01:18:58;;;;;;;2.13;1.00;;;;;;;13.82;36.03;100998.31;5093884;28;20047;-69
2023/03/29 01:21:29;;;;;;;2.08;1.10;;;;;;;13.82;35.92;100998.31;5112859;28;20036;-70
2023/03/29 01:24:24;;;;;;;2.53;1.10;;;;;;;13.82;35.80;101000.16;5114172;28;20047;-69
2023/03/29 01:26:59;;;;;;;1.83;0.95;;;;;;;13.80;35.85;100994.00;5108309;28;20051;-69
2023/03/29 01:29:36;;;;;;;2.30;1.10;;;;;;;13.78;35.83;100995.91;5114334;28;20043;-68
2023/03/29 01:32:09;;;;;;;2.95;1.25;;;;;;;13.75;35.87;100991.63;5114008;28;20043;-68
2023/03/29 01:34:42;;;;;;;2.05;1.05;;;;;;;13.72;35.89;100992.66;5114168;28;20055;-69
2023/03/29 01:37:17;;;;;;;1.85;1.02;;;;;;;13.71;36.03;100984.72;5114136;28;20408;-68
2023/03/29 01:39:46;;;;;;;1.83;0.90;;;;;;;13.71;35.90;100982.91;5114107;28;20059;-69
2023/03/29 01:42:22;;;;;;;2.42;1.30;;;;;;;13.69;36.00;100987.47;5113963;28;20131;-68
2023/03/29 01:44:57;;;;;;;1.60;1.10;;;;;;;13.66;36.04;100978.78;5114133;28;20100;-69
2023/03/29 01:47:31;;;;;;;2.17;1.13;;;;;;;13.66;35.94;100986.81;5113809;28;20081;-69
2023/03/29 01:50:07;;;;;;;2.20;1.30;;;;;;;13.64;35.90;100972.66;5113831;28;20047;-69
2023/03/29 01:52:40;;;;;;;3.22;1.20;;;;;;;13.62;35.80;100975.44;5113776;28;20051;-69
2023/03/29 01:55:12;;;;;;;1.98;1.00;;;;;;;13.58;35.88;100979.22;5113594;28;20090;-71
2023/03/29 01:57:43;;;;;;;1.52;0.80;;;;;;;13.59;35.98;100980.97;5113848;28;20801;-68
2023/03/29 02:00:21;;;;;;;3.47;1.20;;;;;;;13.57;36.06;100979.34;5113540;28;20096;-70
2023/03/29 02:02:51;;;;;;;1.75;1.00;;;;;;;13.56;35.76;100983.84;5113414;28;20081;-69
2023/03/29 02:05:23;;;;;;;2.67;1.20;;;;;;;13.53;35.88;100986.72;5113465;28;20066;-69
2023/03/29 02:07:52;;;;;;;1.98;1.02;;;;;;;13.52;35.83;100990.34;5113347;28;20036;-69
2023/03/29 02:10:23;;;;;;;3.83;1.30;;;;;;;13.49;35.80;100990.50;5113402;28;20406;-69
2023/03/29 02:12:51;;;;;;;2.28;0.93;;;;;;;13.49;35.76;100995.88;5113243;27;20052;-69
2023/03/29 02:15:22;;;;;;;2.00;1.13;;;;;;;13.46;35.87;100996.06;5113195;28;20074;-70
2023/03/29 02:17:50;;;;;;;2.55;1.27;;;;;;;13.46;35.80;101001.44;5113187;27;20096;-69
2023/03/29 02:20:23;;;;;;;3.33;1.30;;;;;;;13.44;35.83;100992.63;5113930;28;20067;-69
2023/03/29 02:22:58;;;;;;;2.55;1.20;;;;;;;13.41;35.68;100993.69;5113205;28;20051;-69
2023/03/29 02:25:26;;;;;;;1.55;1.17;;;;;;;13.41;35.83;100999.03;5113099;28;20093;-69
2023/03/29 02:27:56;;;;;;;3.60;1.23;;;;;;;13.39;35.91;100994.69;5112762;28;20138;-69
2023/03/29 02:30:30;;;;;;;2.20;1.00;;;;;;;13.37;35.86;101001.97;5113080;28;20519;-69
2023/03/29 02:33:05;;;;;;;2.80;1.30;;;;;;;13.36;35.87;101005.63;5113157;28;20044;-68
2023/03/29 02:35:38;;;;;;;3.35;1.45;;;;;;;13.34;35.87;101005.72;5112738;28;20403;-68
2023/03/29 02:38:10;;;;;;;2.50;1.30;;;;;;;13.33;35.84;101012.03;5112883;28;20122;-68
2023/03/29 02:40:40;;;;;;;2.30;1.17;;;;;;;13.31;35.90;101002.34;5112653;28;20048;-69
2023/03/29 02:43:10;;;;;;;2.25;1.00;;;;;;;13.29;35.76;101004.25;5112875;28;20048;-69
2023/03/29 02:45:41;;;;;;;2.17;1.30;;;;;;;13.29;35.94;101005.09;5112729;28;20483;-69
2023/03/29 02:48:16;;;;;;;2.53;1.20;;;;;;;13.26;35.77;101004.44;5112636;28;20075;-68
2023/03/29 02:50:50;;;;;;;2.47;1.08;;;;;;;13.25;35.78;101002.72;5112613;28;20142;-69
2023/03/29 02:53:24;;;;;;;1.98;1.00;;;;;;;13.21;35.75;101001.16;5112547;28;20097;-68
2023/03/29 02:55:52;;;;;;;3.00;1.20;;;;;;;13.22;35.84;101014.50;5111255;28;20404;-69
2023/03/29 02:58:28;;;;;;;2.38;1.27;;;;;;;13.20;35.95;101004.78;5112520;28;20054;-69
2023/03/29 03:01:01;;;;;;;3.13;1.50;;;;;;;13.20;35.80;101002.13;5112442;28;20071;-69
2023/03/29 03:03:30;;;;;;;2.53;1.00;;;;;;;13.18;35.71;101013.75;5112519;28;20054;-69
2023/03/29 03:06:00;;;;;;;3.13;1.20;;;;;;;13.13;35.73;101013.19;5112269;28;20043;-68
2023/03/29 03:08:28;;;;;;;2.60;1.20;;;;;;;13.11;35.85;101012.38;5112361;28;20056;-69
2023/03/29 03:10:57;;;;;;;2.15;1.20;;;;;;;13.13;35.87;101013.19;5112322;28;20392;-69
2023/03/29 03:13:25;;;;;;;2.80;1.45;;;;;;;13.13;35.73;101020.34;5112349;28;20047;-69
2023/03/29 03:15:53;;;;;;;2.15;1.20;;;;;;;13.10;35.77;101024.06;5112138;28;20053;-69
2023/03/29 03:18:23;;;;;;;2.00;1.30;;;;;;;13.08;35.60;101019.75;5112081;28;20050;-69
2023/03/29 03:20:58;;;;;;;2.15;1.30;;;;;;;13.08;35.67;101025.97;5112181;28;20044;-69
2023/03/29 03:23:27;;;;;;;1.92;1.00;;;;;;;13.06;35.70;101021.66;5112218;28;20104;-69
2023/03/29 03:25:56;;;;;;;3.20;1.40;;;;;;;13.04;35.67;101021.75;5112072;28;20047;-69
2023/03/29 03:28:26;;;;;;;1.95;1.10;;;;;;;13.03;35.55;101024.53;5112186;28;20484;-69
2023/03/29 03:30:54;;;;;;;2.28;1.08;;;;;;;13.01;35.67;101023.72;5112171;28;20052;-69
2023/03/29 03:33:25;;;;;;;3.28;1.30;;;;;;;13.00;35.74;101025.53;5112012;28;20050;-68
2023/03/29 03:35:55;;;;;;;3.97;1.52;;;;;;;12.97;35.66;101023.06;5112102;28;20047;-67
2023/03/29 03:38:24;;;;;;;3.63;1.55;;;;;;;12.96;35.76;101034.72;5112915;28;20466;-68
2023/03/29 03:40:55;;;;;;;1.80;1.20;;;;;;;12.93;35.76;101025.97;5116203;28;20118;-68
2023/03/29 03:43:24;;;;;;;3.17;1.48;;;;;;;12.93;35.85;101026.84;5116162;28;20127;-68
2023/03/29 03:45:52;;;;;;;2.28;1.23;;;;;;;12.92;35.80;101027.78;5116079;28;20056;-68
2023/03/29 03:48:21;;;;;;;3.83;1.33;;;;;;;12.92;35.76;101032.28;5116094;28;20122;-68
2023/03/29 03:50:52;;;;;;;2.80;1.40;;;;;;;12.90;35.89;101029.69;5116083;28;20442;-68
2023/03/29 03:53:24;;;;;;;2.22;1.30;;;;;;;12.89;35.65;101033.34;5116158;28;20083;-68
2023/03/29 03:55:54;;;;;;;2.58;1.40;;;;;;;12.85;35.65;101021.94;5115753;28;20043;-69
2023/03/29 03:58:23;;;;;;;2.75;1.45;;;;;;;12.86;35.88;101030.84;5115772;28;20070;-69
2023/03/29 04:00:51;;;;;;;2.97;1.30;;;;;;;12.84;35.83;101024.72;5115985;28;20050;-69
2023/03/29 04:03:20;;;;;;;2.85;1.38;;;;;;;12.84;35.84;101030.94;5115902;28;20441;-69
2023/03/29 04:05:50;;;;;;;2.70;1.42;;;;;;;12.83;35.63;101029.19;5115891;28;20522;-69
2023/03/29 04:08:18;;;;;;;2.97;1.48;;;;;;;12.80;35.63;101029.38;5115681;28;20071;-68
2023/03/29 04:10:52;;;;;;;2.95;1.25;;;;;;;12.81;35.90;101040.94;5115516;28;20051;-68
2023/03/29 04:13:25;;;;;;;3.28;1.65;;;;;;;12.80;35.64;101036.53;5115705;28;20509;-68
2023/03/29 04:16:09;;;;;;;2.38;1.20;;;;;;;12.77;35.62;101034.91;5115533;28;20422;-69
2023/03/29 04:18:37;;;;;;;3.95;1.45;;;;;;;12.77;35.66;101034.91;5115539;28;20043;-68
2023/03/29 04:21:07;;;;;;;1.85;1.23;;;;;;;12.74;35.66;101035.09;5115416;28;20062;-67
2023/03/29 04:23:36;;;;;;;2.78;1.52;;;;;;;12.72;35.57;101031.59;5115540;28;20126;-67
2023/03/29 04:26:05;;;;;;;2.88;1.50;;;;;;;12.73;35.80;101033.34;5099324;28;20048;-67
2023/03/29 04:28:33;;;;;;;2.85;1.50;;;;;;;12.70;35.83;101038.88;5095014;28;20052;-69
2023/03/29 04:31:01;;;;;;;3.05;1.30;;;;;;;12.70;35.94;101032.66;5094762;28;20102;-69
2023/03/29 04:33:30;;;;;;;2.70;1.40;;;;;;;12.68;35.70;101034.56;5094766;28;20048;-69
2023/03/29 04:35:58;;;;;;;2.50;1.50;;;;;;;12.70;35.78;101032.66;5094362;28;20135;-68
2023/03/29 04:38:28;;;;;;;3.17;1.80;;;;;;;12.69;35.77;101037.16;5094677;28;20039;-68
2023/03/29 04:40:57;;;;;;;2.60;1.70;;;;;;;12.72;36.00;101044.13;5094608;28;20150;-67
2023/03/29 04:43:25;;;;;;;3.88;1.60;;;;;;;12.76;36.06;101037.66;5094659;28;20085;-68
2023/03/29 04:45:54;;;;;;;3.13;1.50;;;;;;;12.81;36.25;101025.72;5094725;28;20051;-68
2023/03/29 04:48:22;;;;;;;3.08;1.50;;;;;;;12.86;36.34;101023.66;5094455;28;20400;-67
2023/03/29 04:50:51;;;;;;;3.00;1.50;;;;;;;12.97;36.39;101025.72;5094483;28;20069;-67
2023/03/29 04:53:19;;;;;;;4.03;1.60;;;;;;;13.04;36.21;101029.78;5094187;28;20040;-67
2023/03/29 04:55:49;;;;;;;2.88;1.50;;;;;;;13.14;36.32;101028.28;5094361;28;20499;-68
2023/03/29 04:58:17;;;;;;;2.83;1.52;;;;;;;13.22;36.14;101033.25;5094455;28;20052;-67
2023/03/29 05:00:50;;;;;;;3.30;1.48;;;;;;;13.32;36.03;101037.09;5094942;28;20495;-67
2023/03/29 05:03:19;;;;;;;2.70;1.63;;;;;;;13.42;36.02;101037.41;5094421;28;20044;-67
2023/03/29 05:05:47;;;;;;;2.85;1.63;;;;;;;13.52;35.89;101048.44;5094687;28;20481;-65
2023/03/29 05:08:16;;;;;;;3.22;1.55;;;;;;;13.58;35.81;101040.88;5094050;28;20056;-67
2023/03/29 05:10:45;;;;;;;3.40;1.60;;;;;;;13.69;35.83;101035.72;5094105;28;20040;-67
2023/03/29 05:13:15;;;;;;;3.10;1.50;;;;;;;13.78;35.59;101034.31;5093970;28;20058;-66
2023/03/29 05:15:43;;;;;;;2.95;1.40;;;;;;;13.84;35.64;101043.81;5093708;28;20526;-67
2023/03/29 05:18:11;;;;;;;3.50;1.73;;;;;;;13.88;35.59;101034.63;5093728;28;20048;-68
2023/03/29 05:20:41;;;;;;;3.08;1.63;;;;;;;13.91;35.65;101034.44;5093799;28;20093;-66
2023/03/29 05:23:09;;;;;;;3.45;1.55;;;;;;;13.94;35.62;101039.63;5093664;28;20158;-66
2023/03/29 05:25:37;;;;;;;3.92;1.75;;;;;;;13.99;35.60;101042.84;5093782;28;20046;-67
2023/03/29 05:28:05;;;;;;;3.97;1.65;;;;;;;14.02;35.48;101042.69;5093578;28;20048;-69
2023/03/29 05:30:34;;;;;;;3.95;1.60;;;;;;;14.09;35.45;101038.69;5093612;28;20514;-66
2023/03/29 05:33:04;;;;;;;3.67;1.48;;;;;;;14.17;35.57;101039.03;5093522;28;20149;-67
2023/03/29 05:35:34;;;;;;;4.00;1.50;;;;;;;14.29;35.67;101035.59;5093545;28;20055;-67
2023/03/29 05:38:03;;;;;;;3.55;1.60;;;;;;;14.38;35.50;101030.59;5093341;28;20540;-68
2023/03/29 05:40:32;;;;;;;2.45;1.50;;;;;;;14.42;35.38;101041.03;5093187;28;20056;-67
2023/03/29 05:43:01;;;;;;;3.17;1.67;;;;;;;14.45;35.34;101032.81;5093176;28;20480;-68
2023/03/29 05:45:31;;;;;;;3.25;1.45;;;;;;;14.48;35.31;101037.16;5093235;28;20040;-69
2023/03/29 05:48:02;;;;;;;3.35;1.63;;;;;;;14.50;35.38;101044.13;5093197;28;20481;-68
2023/03/29 05:50:31;;;;;;;3.40;1.63;;;;;;;14.52;35.53;101052.09;5093053;28;20075;-69
2023/03/29 05:52:59;;;;;;;3.75;1.70;;;;;;;14.52;35.51;101052.94;5093079;28;20135;-68
2023/03/29 05:55:27;;;;;;;3.85;1.70;;;;;;;14.51;35.68;101050.38;5093014;28;20119;-70
2023/03/29 05:57:56;;;;;;;3.60;1.73;;;;;;;14.51;35.55;101056.59;5093182;28;20052;-68
2023/03/29 06:00:24;;;;;;;3.95;1.70;;;;;;;14.50;35.63;101059.38;5092876;28;20563;-69
2023/03/29 06:02:52;;;;;;;3.17;1.73;;;;;;;14.49;35.63;101053.16;5092777;28;20050;-68
2023/03/29 06:05:22;;;;;;;4.80;1.90;;;;;;;14.47;35.70;101055.03;5093014;28;20055;-68
2023/03/29 06:07:50;;;;;;;3.95;1.70;;;;;;;14.46;35.78;101056.00;5092623;28;20047;-68
2023/03/29 06:10:19;;;;;;;3.08;1.60;;;;;;;14.45;35.59;101056.13;5092777;28;20047;-68
2023/03/29 06:12:48;;;;;;;3.92;1.80;;;;;;;14.44;35.85;101065.09;5092491;28;20130;-69
2023/03/29 06:15:16;;;;;;;3.13;1.60;;;;;;;14.40;35.74;101059.06;5093092;28;20119;-69
2023/03/29 06:17:45;;;;;;;4.00;1.77;;;;;;;14.41;35.97;101060.78;5093059;28;20055;-69
2023/03/29 06:20:14;;;;;;;2.97;1.63;;;;;;;14.39;35.88;101059.16;5093229;28;20121;-70
2023/03/29 06:22:45;;;;;;;3.40;1.67;;;;;;;14.37;35.91;101059.25;5092145;28;20060;-71
2023/03/29 06:25:14;;;;;;;3.97;1.80;;;;;;;14.35;36.06;101063.84;5092776;28;20040;-70
2023/03/29 06:27:42;;;;;;;3.90;1.80;;;;;;;14.34;35.80;101064.81;5092509;28;20040;-71
2023/03/29 06:30:11;;;;;;;3.72;1.88;;;;;;;14.30;35.66;101065.97;5092138;28;20050;-70
2023/03/29 06:32:40;;;;;;;4.47;2.05;;;;;;;14.28;35.59;101067.88;5087766;28;20435;-70
2023/03/29 06:35:09;;;;;;;4.20;2.10;;;;;;;14.30;35.49;101072.22;5096691;28;20047;-71
2023/03/29 06:37:39;;;;;;;4.13;2.00;;;;;;;14.27;35.32;101071.50;5094391;28;20048;-70
2023/03/29 06:40:10;;;;;;;3.58;1.70;;;;;;;14.25;35.50;101076.97;5097251;28;20112;-70
2023/03/29 06:42:38;;;;;;;3.40;1.50;;;;;;;14.23;35.49;101078.91;5097227;28;20059;-70
2023/03/29 06:45:09;;;;;;;3.80;2.00;;;;;;;14.21;35.45;101083.50;5097173;28;20496;-71
2023/03/29 06:47:37;;;;;;;3.25;1.67;;;;;;;14.21;35.23;101086.19;5093793;28;20071;-70
2023/03/29 06:50:07;;;;;;;5.13;1.90;;;;;;;14.19;35.19;101085.44;5093485;28;20649;-71
2023/03/29 06:52:35;;;;;;;3.20;1.77;;;;;;;14.18;35.42;101086.38;5092005;28;20044;-68
2023/03/29 06:55:06;;;;;;;4.47;2.05;;;;;;;14.16;35.32;101082.06;5092330;28;20048;-70
2023/03/29 06:57:36;;;;;;;3.92;1.95;;;;;;;14.14;35.12;101073.25;5091156;28;20560;-70
2023/03/29 07:00:13;;;;;;;3.97;1.73;;;;;;;14.14;35.17;101073.25;5091807;28;20036;-69
2023/03/29 07:02:42;;;;;;;3.38;1.88;;;;;;;14.11;35.15;101082.34;5092021;28;20048;-68
2023/03/29 07:05:10;;;;;;;2.70;1.60;;;;;;;14.10;35.13;101087.81;5092019;28;20056;-68
2023/03/29 07:07:52;;;;;;;3.30;1.60;;;;;;;14.06;35.15;101089.81;5092016;28;20463;-63
2023/03/29 07:10:21;;;;;;;3.70;1.63;;;;;;;14.08;35.33;101087.88;5091947;28;20048;-66
2023/03/29 07:12:51;;;;;;;4.82;1.80;;;;;;;14.07;35.23;101093.34;5090863;28;20088;-68
2023/03/29 07:15:20;;;;;;;3.25;1.50;;;;;;;14.04;35.26;101094.41;5091758;28;20048;-68
2023/03/29 07:17:48;;;;;;;3.58;1.90;;;;;;;14.05;35.38;101098.81;5089518;28;20138;-67
2023/03/29 07:20:18;;;;;;;5.07;1.85;;;;;;;14.08;35.70;101105.81;5091088;28;20135;-68
2023/03/29 07:22:47;;;;;;;4.47;1.70;;;;;;;14.09;35.78;101096.81;5091357;28;20075;-68
2023/03/29 07:25:16;;;;;;;5.53;1.90;;;;;;;14.17;35.93;101106.09;5091269;28;20044;-68
2023/03/29 07:27:45;;;;;;;2.95;1.55;;;;;;;14.24;36.04;101110.16;5091297;28;20048;-68
2023/03/29 07:30:17;;;;;;;3.70;1.65;;;;;;;14.34;36.03;101107.75;5091820;28;20043;-68
2023/03/29 07:32:46;;;;;;;4.83;2.03;;;;;;;14.41;36.11;101102.88;5091649;28;20131;-68
2023/03/29 07:35:18;;;;;;;2.72;1.60;;;;;;;14.48;35.86;101109.63;5091721;28;20519;-68
2023/03/29 07:37:46;;;;;;;3.90;1.55;;;;;;;14.53;35.88;101124.47;5091346;28;20055;-68
2023/03/29 07:40:18;;;;;;;3.85;1.65;;;;;;;14.58;36.02;101116.13;5091389;28;20661;-68
2023/03/29 07:42:46;;;;;;;4.10;1.67;;;;;;;14.60;35.86;101115.06;5091645;28;20048;-67
2023/03/29 07:45:19;;;;;;;3.47;1.83;;;;;;;14.64;35.98;101115.72;5091506;28;20059;-67
2023/03/29 07:47:55;;;;;;;3.65;1.60;;;;;;;14.65;35.81;101122.81;5091447;28;20067;-68
2023/03/29 07:50:28;;;;;;;2.72;1.50;;;;;;;14.66;36.01;101118.31;5091261;28;20101;-67
2023/03/29 07:52:56;;;;;;;3.13;1.50;;;;;;;14.67;36.03;101109.28;5091587;28;20122;-69
2023/03/29 07:55:24;;;;;;;3.83;1.70;;;;;;;14.67;36.37;101112.88;5091496;28;20284;-68
2023/03/29 07:57:53;;;;;;;3.15;1.70;;;;;;;14.69;36.49;101116.31;5091411;28;20185;-68
2023/03/29 08:00:23;;;;;;;2.70;1.50;;;;;;;14.68;36.51;101117.28;5091327;28;20393;-68
2023/03/29 08:02:52;;;;;;;4.10;1.80;;;;;;;14.68;36.63;101121.78;5091428;28;20078;-68
2023/03/29 08:05:22;;;;;;;3.55;1.85;;;;;;;14.68;36.43;101122.66;5091286;28;20138;-68
2023/03/29 08:08:08;;;;;;;3.70;1.65;;;;;;;14.70;36.36;101122.53;5091189;28;20044;-68
2023/03/29 08:10:41;;;;;;;3.67;1.73;;;;;;;14.68;36.49;101116.41;5091142;28;20599;-68
2023/03/29 08:13:10;;;;;;;3.28;1.50;;;;;;;14.67;36.24;101111.97;5091301;28;20051;-69
2023/03/29 08:15:44;;;;;;;3.85;1.80;;;;;;;14.66;36.13;101108.44;5091230;28;20055;-70
2023/03/29 08:18:13;;;;;;;3.55;1.75;;;;;;;14.66;36.05;101111.13;5091315;28;20054;-69
2023/03/29 08:20:41;;;;;;;3.45;1.60;;;;;;;14.65;36.13;101109.41;5091318;28;20461;-69
2023/03/29 08:23:10;;;;;;;4.40;1.77;;;;;;;14.64;35.86;101105.00;5091194;28;20090;-69
2023/03/29 08:25:38;;;;;;;4.90;1.70;;;;;;;14.63;35.85;101105.94;5094032;28;20048;-70
2023/03/29 08:28:07;;;;;;;4.15;1.83;;;;;;;14.64;35.88;101107.69;5095234;28;20043;-69
2023/03/29 08:30:35;;;;;;;4.03;1.55;;;;;;;14.64;35.43;101098.75;5094851;28;20614;-69
2023/03/29 08:33:05;;;;;;;4.53;1.70;;;;;;;14.63;35.41;101102.41;5094742;28;20067;-69
2023/03/29 08:35:33;;;;;;;3.70;1.63;;;;;;;14.49;35.45;101076.44;5094771;28;20043;-69
2023/03/29 08:38:02;;;;;;;3.35;1.75;;;;;;;14.61;35.43;101099.81;5094370;28;20054;-68
2023/03/29 08:40:30;;;;;;;2.63;1.42;;;;;;;14.61;35.39;101094.47;5094197;28;20149;-69
2023/03/29 08:43:14;;;;;;;3.35;1.40;;;;;;;14.62;35.21;101100.69;5094452;28;20097;-69
2023/03/29 08:45:52;;;;;;;2.63;1.65;;;;;;;14.61;35.22;101099.81;5094561;28;20055;-69
2023/03/29 08:48:29;;;;;;;3.05;1.40;;;;;;;14.60;35.31;101098.97;5094391;28;20131;-69
2023/03/29 08:51:01;;;;;;;3.78;1.60;;;;;;;14.61;35.31;101102.50;5094175;28;20115;-69
2023/03/29 08:53:35;;;;;;;1.92;1.30;;;;;;;14.59;35.33;101102.63;5094359;28;20051;-69
2023/03/29 08:56:07;;;;;;;2.75;1.27;;;;;;;14.60;35.26;101092.72;5094240;28;20067;-70
2023/03/29 08:58:38;;;;;;;3.47;1.43;;;;;;;14.58;35.33;101087.47;5094134;28;20040;-69
2023/03/29 09:01:10;;;;;;;2.80;1.30;;;;;;;14.59;35.35;101091.00;5094260;28;20067;-70
2023/03/29 09:03:45;;;;;;;3.10;1.47;;;;;;;14.54;35.27;101080.53;5093957;28;20048;-68
2023/03/29 09:06:16;;;;;;;2.88;1.35;;;;;;;14.58;35.32;101078.56;5094129;28;20109;-68
2023/03/29 09:08:47;;;;;;;3.35;1.67;;;;;;;14.58;35.03;101086.59;5093998;28;20468;-69
2023/03/29 09:11:43;;;;;;;3.50;1.70;;;;;;;14.56;34.91;101075.06;5093903;28;20040;-69
2023/03/29 09:14:28;;;;;;;2.90;1.50;;;;;;;14.57;35.11;101074.13;5093923;28;20066;-70
2023/03/29 09:17:02;;;;;;;2.75;1.30;;;;;;;14.56;35.10;101064.34;5094206;28;20039;-70
2023/03/29 09:19:39;;;;;;;2.92;1.50;;;;;;;14.55;35.25;101060.78;5093784;28;20476;-69
2023/03/29 09:22:14;;;;;;;3.58;1.60;;;;;;;14.54;35.27;101052.84;5093834;28;20540;-69
2023/03/29 09:24:58;;;;;;;2.75;1.45;;;;;;;14.56;35.19;101058.97;5093578;28;20051;-69
2023/03/29 09:27:30;;;;;;;3.10;1.60;;;;;;;14.54;35.18;101060.91;5093798;28;20130;-69
2023/03/29 09:30:16;;;;;;;2.92;1.45;;;;;;;14.55;35.42;101058.09;5093634;28;20119;-69
2023/03/29 09:32:51;;;;;;;3.00;1.50;;;;;;;14.56;35.41;101054.47;5093520;28;20044;-69
2023/03/29 09:35:24;;;;;;;2.47;1.23;;;;;;;14.55;35.26;101051.88;5093073;28;20094;-70
2023/03/29 09:37:54;;;;;;;3.17;1.60;;;;;;;14.56;35.49;101053.59;5093053;28;20044;-69
2023/03/29 09:40:27;;;;;;;3.05;1.58;;;;;;;14.58;35.37;101051.72;5093409;28;20054;-69
2023/03/29 09:42:57;;;;;;;2.15;1.33;;;;;;;14.59;35.31;101045.38;5093552;28;20052;-69
2023/03/29 09:45:25;;;;;;;2.35;1.30;;;;;;;14.59;35.38;101051.59;5093379;28;20044;-70
2023/03/29 09:47:57;;;;;;;3.55;1.55;;;;;;;14.61;35.27;101046.13;5093636;28;20428;-70
2023/03/29 09:50:33;;;;;;;2.60;1.38;;;;;;;14.62;35.25;101044.31;5093612;28;20424;-70
2023/03/29 09:53:01;;;;;;;3.40;1.60;;;;;;;14.62;35.50;101037.09;5093278;28;20040;-69
2023/03/29 09:55:32;;;;;;;1.60;1.00;;;;;;;14.65;35.58;101036.91;5093156;28;20048;-69
2023/03/29 09:58:05;;;;;;;2.72;1.45;;;;;;;14.64;35.20;101035.19;5093571;28;20369;-69
2023/03/29 10:00:34;;;;;;;3.03;1.35;;;;;;;14.67;35.06;101035.00;5093133;28;20516;-69
2023/03/29 10:03:02;;;;;;;4.53;1.42;;;;;;;14.68;35.04;101031.34;5093091;28;20089;-69
2023/03/29 10:05:36;;;;;;;3.67;1.75;;;;;;;14.69;35.21;101021.47;5092991;28;20047;-69
2023/03/29 10:08:17;;;;;;;4.63;1.38;;;;;;;14.70;35.11;101026.75;5093080;28;20075;-69
2023/03/29 10:10:47;;;;;;;2.92;1.55;;;;;;;14.71;35.33;101017.72;5092872;28;20047;-69
2023/03/29 10:13:21;;;;;;;3.28;1.45;;;;;;;14.73;35.21;101013.09;5093046;28;20070;-70
2023/03/29 10:16:02;;;;;;;3.35;1.77;;;;;;;14.76;35.13;101018.25;5092837;28;20044;-70
2023/03/29 10:18:32;;;;;;;2.55;1.30;;;;;;;14.77;35.25;101006.59;5092600;28;20055;-70
2023/03/29 10:21:04;;;;;;;3.33;1.63;;;;;;;14.79;35.39;101001.09;5092534;28;20047;-69
2023/03/29 10:23:34;;;;;;;2.50;1.17;;;;;;;14.82;35.65;101004.44;5091515;28;20071;-69
2023/03/29 10:26:04;;;;;;;2.95;1.48;;;;;;;14.84;35.49;100994.44;5092541;28;20044;-71
2023/03/29 10:28:35;;;;;;;3.67;1.63;;;;;;;14.86;35.73;100997.94;5092642;28;20047;-70
2023/03/29 10:31:06;;;;;;;3.35;1.63;;;;;;;14.89;35.80;100989.66;5092349;28;20485;-70
2023/03/29 10:33:36;;;;;;;2.75;1.42;;;;;;;14.92;35.93;100987.72;5092275;28;20044;-70
2023/03/29 10:36:07;;;;;;;2.15;1.17;;;;;;;14.95;35.92;100984.81;5092342;28;20048;-70
2023/03/29 10:38:37;;;;;;;2.88;1.40;;;;;;;14.99;35.95;100986.34;5091973;28;20080;-69
2023/03/29 10:41:09;;;;;;;3.05;1.10;;;;;;;15.02;36.10;100986.13;5092387;28;20040;-69
2023/03/29 10:43:38;;;;;;;3.95;1.50;;;;;;;15.05;36.23;100983.22;5092105;28;20044;-69
2023/03/29 10:46:11;;;;;;;3.40;1.55;;;;;;;15.08;36.28;100977.69;5092060;28;20044;-70
2023/03/29 10:48:45;;;;;;;2.25;1.40;;;;;;;15.12;36.13;100979.19;5091999;28;20089;-69
2023/03/29 10:51:17;;;;;;;2.42;1.33;;;;;;;15.16;36.11;100972.66;5091916;28;20091;-69
2023/03/29 10:53:46;;;;;;;2.15;1.30;;;;;;;15.18;35.99;100976.94;5091920;28;20044;-69
2023/03/29 10:56:31;;;;;;;2.13;1.25;;;;;;;15.25;36.04;100969.34;5092011;28;20143;-69
2023/03/29 10:59:27;;;;;;;2.55;1.40;;;;;;;15.29;36.35;100968.16;5091917;28;20068;-70
2023/03/29 11:02:45;;;;;;;2.80;1.48;;;;;;;15.36;36.25;100971.28;5092059;28;20097;-68
2023/03/29 11:05:30;;;;;;;2.28;1.40;;;;;;;15.41;35.91;100966.44;5092405;28;20048;-70
2023/03/29 11:08:14;;;;;;;2.30;1.20;;;;;;;15.45;36.01;100958.06;5092022;28;20047;-69
2023/03/29 11:10:54;;;;;;;2.47;1.17;;;;;;;15.51;36.03;100956.78;5091854;28;20040;-70
2023/03/29 11:13:31;;;;;;;2.28;1.20;;;;;;;15.55;35.87;100952.06;5092180;28;20044;-69
2023/03/29 11:16:10;;;;;;;2.67;1.25;;;;;;;15.62;35.84;100956.06;5091926;28;20321;-69
2023/03/29 11:18:57;;;;;;;2.47;1.30;;;;;;;15.66;35.92;100952.19;5091643;28;20048;-70
2023/03/29 11:21:34;;;;;;;2.70;1.40;;;;;;;15.69;35.94;100949.28;5091588;28;20044;-70
2023/03/29 11:24:25;;;;;;;2.67;1.30;;;;;;;15.76;35.79;100950.56;5091983;28;20063;-70
2023/03/29 11:27:08;;;;;;;3.30;1.40;;;;;;;15.83;35.82;100946.50;5091471;28;20048;-69
2023/03/29 11:29:41;;;;;;;;;;;;;;;15.89;36.09;100946.03;5091796;28;20515;-70
2023/03/29 11:32:15;;;;;;;3.20;1.33;;;;;;;15.94;36.02;100946.59;5091301;28;19927;-68
2023/03/29 11:34:58;;;;;;;4.25;1.48;;;;;;;15.99;35.99;100952.47;5091612;28;20055;-68
2023/03/29 11:37:35;;;;;;;2.53;1.40;;;;;;;16.02;35.87;100946.91;5091338;28;20047;-69
2023/03/29 11:40:23;;;;;;;2.55;1.33;;;;;;;16.07;35.76;100937.63;5091132;28;20114;-69
2023/03/29 11:42:55;;;;;;;3.45;1.35;;;;;;;16.06;35.75;100925.13;5091414;28;20047;-68
2023/03/29 11:45:29;;;;;;;2.95;1.42;;;;;;;16.11;35.79;100928.34;5091166;28;20051;-68